Time;durP1;ratioP1;P1;durP2;ratioP2;P2;SDS_P1;SDS_P2;PMS_P1;PMS_P2;Temp;Humidity;BMP_temperature;BMP_pressure;BME280_temperature;BME280_humidity;BME280_pressure;Samples;Min_cycle;Max_cycle;Signal;HPM_P1;HPM_P2
2022/07/26 00:01:16;;;;;;;6.53;3.90;;;21.60;55.70;;;;;;5083311;28;20524;-59
2022/07/26 00:03:42;;;;;;;11.73;3.57;;;21.60;55.80;;;;;;5082314;28;20527;-59
2022/07/26 00:06:07;;;;;;;8.60;3.50;;;21.60;56.00;;;;;;5079933;28;20967;-59
2022/07/26 00:08:33;;;;;;;5.27;3.23;;;21.60;56.00;;;;;;5088149;28;20259;-60
2022/07/26 00:10:59;;;;;;;5.57;3.10;;;21.60;56.30;;;;;;5083357;28;20666;-60
2022/07/26 00:13:25;;;;;;;8.53;3.00;;;21.60;56.40;;;;;;5086535;28;20261;-59
2022/07/26 00:15:51;;;;;;;5.40;2.80;;;21.50;56.30;;;;;;5080646;28;20193;-59
2022/07/26 00:18:18;;;;;;;4.60;3.27;;;21.50;56.20;;;;;;5090347;28;20600;-60
2022/07/26 00:20:44;;;;;;;5.53;3.10;;;21.50;56.30;;;;;;5082821;28;20481;-59
2022/07/26 00:23:09;;;;;;;6.43;3.03;;;21.50;57.10;;;;;;5087563;28;20424;-59
2022/07/26 00:25:36;;;;;;;6.67;3.00;;;21.50;56.60;;;;;;5087980;28;20416;-59
2022/07/26 00:28:01;;;;;;;4.90;3.23;;;21.50;57.10;;;;;;5086892;28;20174;-59
2022/07/26 00:30:27;;;;;;;3.20;2.77;;;21.50;57.30;;;;;;5087892;28;20446;-59
2022/07/26 00:32:53;;;;;;;5.00;2.97;;;21.40;57.00;;;;;;5081645;28;20597;-59
2022/07/26 00:35:19;;;;;;;7.10;2.70;;;21.40;57.00;;;;;;5079529;28;20201;-59
2022/07/26 00:37:45;;;;;;;4.43;2.53;;;21.40;56.60;;;;;;5089188;28;20408;-60
2022/07/26 00:40:11;;;;;;;7.53;2.73;;;21.40;56.20;;;;;;5082423;28;20422;-59
2022/07/26 00:42:36;;;;;;;5.57;2.67;;;21.40;55.90;;;;;;5084763;28;20259;-60
2022/07/26 00:45:04;;;;;;;7.40;3.50;;;21.40;56.50;;;;;;5085197;28;20177;-59
2022/07/26 00:47:31;;;;;;;5.10;3.27;;;21.40;57.60;;;;;;5084296;28;20527;-59
2022/07/26 00:49:56;;;;;;;6.60;3.33;;;21.40;57.40;;;;;;5083212;28;20524;-60
2022/07/26 00:52:22;;;;;;;4.63;3.17;;;21.40;57.90;;;;;;5080598;28;20435;-59
2022/07/26 00:54:48;;;;;;;4.00;3.23;;;21.30;58.10;;;;;;5084119;28;20213;-59
2022/07/26 00:57:15;;;;;;;4.80;3.33;;;21.30;58.40;;;;;;5079115;28;20181;-59
2022/07/26 00:59:41;;;;;;;8.23;2.90;;;21.20;58.60;;;;;;5085974;28;20189;-59
2022/07/26 01:02:08;;;;;;;7.30;2.80;;;21.20;57.80;;;;;;5082513;28;20435;-59
2022/07/26 01:04:35;;;;;;;6.50;2.67;;;21.20;56.80;;;;;;5081978;28;20512;-60
2022/07/26 01:07:01;;;;;;;6.80;3.07;;;21.20;56.10;;;;;;5087499;28;20459;-60
2022/07/26 01:09:27;;;;;;;5.60;2.80;;;21.30;55.90;;;;;;5086932;28;20464;-59
2022/07/26 01:11:52;;;;;;;10.30;2.80;;;21.30;55.60;;;;;;5084205;28;20428;-59
2022/07/26 01:14:22;;;;;;;6.43;3.00;;;21.30;55.60;;;;;;5083586;28;20166;-60
2022/07/26 01:16:48;;;;;;;3.90;2.97;;;21.40;55.80;;;;;;5078359;28;20193;-60
2022/07/26 01:19:14;;;;;;;6.00;3.10;;;21.40;55.80;;;;;;5085749;28;21271;-60
2022/07/26 01:21:40;;;;;;;9.87;3.20;;;21.40;55.80;;;;;;5085326;28;20432;-59
2022/07/26 01:24:06;;;;;;;6.50;3.03;;;21.50;55.90;;;;;;5083726;28;20186;-60
2022/07/26 01:26:32;;;;;;;7.83;2.73;;;21.40;56.10;;;;;;5082126;28;20666;-60
2022/07/26 01:28:57;;;;;;;3.67;2.50;;;21.40;56.40;;;;;;5088082;28;20482;-60
2022/07/26 01:31:23;;;;;;;4.40;2.40;;;21.40;56.50;;;;;;5087644;28;20251;-60
2022/07/26 01:33:49;;;;;;;6.73;2.27;;;21.40;56.70;;;;;;5083852;28;20209;-60
2022/07/26 01:36:15;;;;;;;5.60;2.30;;;21.40;56.90;;;;;;5084947;28;20185;-60
2022/07/26 01:38:41;;;;;;;4.80;2.50;;;21.40;57.30;;;;;;5089424;28;20440;-60
2022/07/26 01:41:07;;;;;;;3.90;2.40;;;21.40;57.50;;;;;;5083654;28;20173;-60
2022/07/26 01:43:34;;;;;;;4.20;2.90;;;21.40;57.80;;;;;;5088517;28;20426;-60
2022/07/26 01:45:59;;;;;;;5.07;2.50;;;21.30;57.90;;;;;;5087816;28;20170;-59
2022/07/26 01:48:25;;;;;;;2.60;2.00;;;21.30;58.10;;;;;;5090410;28;20519;-59
2022/07/26 01:50:51;;;;;;;5.60;2.20;;;21.30;58.40;;;;;;5081817;28;20202;-59
2022/07/26 01:53:16;;;;;;;4.60;2.33;;;21.30;58.50;;;;;;5082909;28;20181;-60
2022/07/26 01:55:42;;;;;;;5.70;2.27;;;21.40;58.50;;;;;;5085381;28;20274;-60
2022/07/26 01:58:08;;;;;;;4.20;2.43;;;21.40;58.50;;;;;;5089751;28;20578;-60
2022/07/26 02:00:34;;;;;;;2.40;2.20;;;21.40;58.60;;;;;;5088712;28;20654;-60
2022/07/26 02:03:00;;;;;;;2.90;2.10;;;21.40;58.90;;;;;;5086949;28;20222;-60
2022/07/26 02:05:26;;;;;;;3.30;2.33;;;21.30;58.70;;;;;;5085803;28;20186;-60
2022/07/26 02:07:51;;;;;;;5.60;2.30;;;21.30;58.90;;;;;;5088004;28;20415;-60
2022/07/26 02:10:17;;;;;;;4.00;1.97;;;21.30;59.10;;;;;;5088252;28;20242;-60
2022/07/26 02:12:43;;;;;;;2.53;2.03;;;21.30;59.30;;;;;;5086674;28;20174;-60
2022/07/26 02:15:10;;;;;;;4.30;2.20;;;21.30;59.40;;;;;;5086174;28;20755;-60
2022/07/26 02:17:36;;;;;;;2.20;2.00;;;21.30;59.40;;;;;;5083950;28;20459;-60
2022/07/26 02:20:01;;;;;;;6.40;2.60;;;21.40;59.90;;;;;;5089048;28;20471;-60
2022/07/26 02:22:27;;;;;;;3.87;2.10;;;21.40;60.20;;;;;;5082841;28;20796;-60
2022/07/26 02:24:53;;;;;;;3.43;2.13;;;21.40;59.90;;;;;;5078499;28;20539;-60
2022/07/26 02:27:19;;;;;;;4.93;2.67;;;21.40;59.90;;;;;;5076336;28;20185;-60
2022/07/26 02:29:45;;;;;;;4.80;1.90;;;21.30;59.60;;;;;;5078557;28;20200;-60
2022/07/26 02:32:10;;;;;;;7.23;2.10;;;21.30;59.90;;;;;;5071851;28;20433;-60
2022/07/26 02:34:36;;;;;;;3.50;1.90;;;21.30;59.60;;;;;;5070922;28;20182;-60
2022/07/26 02:37:02;;;;;;;2.47;1.87;;;21.30;59.20;;;;;;5076705;28;20204;-60
2022/07/26 02:39:28;;;;;;;3.97;2.00;;;21.30;59.30;;;;;;5074850;28;20300;-59
2022/07/26 02:41:55;;;;;;;3.87;1.90;;;21.30;59.40;;;;;;5072928;28;20427;-59
2022/07/26 02:44:23;;;;;;;3.40;2.20;;;21.30;59.50;;;;;;5078345;28;20171;-60
2022/07/26 02:46:49;;;;;;;5.63;1.80;;;21.30;59.30;;;;;;5076828;28;20451;-60
2022/07/26 02:49:14;;;;;;;6.53;1.90;;;21.30;59.40;;;;;;5074977;28;20483;-59
2022/07/26 02:51:40;;;;;;;3.60;1.90;;;21.40;59.60;;;;;;5074420;28;20177;-60
2022/07/26 02:54:06;;;;;;;2.97;1.70;;;21.30;59.30;;;;;;5078890;28;20698;-60
2022/07/26 02:56:31;;;;;;;3.30;1.87;;;21.30;59.60;;;;;;5071842;28;20589;-59
2022/07/26 02:58:57;;;;;;;2.20;2.00;;;21.40;60.00;;;;;;5077155;28;20193;-60
2022/07/26 03:01:23;;;;;;;2.00;1.80;;;21.30;60.30;;;;;;5071533;28;20732;-59
2022/07/26 03:03:48;;;;;;;5.00;1.93;;;21.30;59.40;;;;;;5080303;28;20603;-60
2022/07/26 03:06:14;;;;;;;4.47;1.93;;;21.30;59.10;;;;;;5075532;28;20175;-60
2022/07/26 03:08:39;;;;;;;4.60;1.87;;;21.30;59.10;;;;;;5075390;28;20186;-59
2022/07/26 03:11:05;;;;;;;2.73;1.40;;;21.20;59.10;;;;;;5076160;28;20175;-60
2022/07/26 03:13:31;;;;;;;2.00;1.60;;;21.20;59.20;;;;;;5077266;28;20272;-60
2022/07/26 03:15:57;;;;;;;1.80;1.53;;;21.10;59.10;;;;;;5072581;28;20202;-60
2022/07/26 03:18:22;;;;;;;3.83;2.13;;;21.10;59.20;;;;;;5076413;28;20451;-60
2022/07/26 03:20:48;;;;;;;5.77;1.80;;;21.10;59.50;;;;;;5077565;28;20687;-60
2022/07/26 03:23:15;;;;;;;1.90;1.70;;;21.10;59.40;;;;;;5076103;28;20587;-60
2022/07/26 03:25:41;;;;;;;2.67;1.90;;;21.10;59.30;;;;;;5074306;28;20170;-60
2022/07/26 03:28:06;;;;;;;2.73;1.87;;;21.00;59.30;;;;;;5079224;28;20478;-59
2022/07/26 03:30:32;;;;;;;2.30;1.57;;;21.10;59.30;;;;;;5074074;28;20243;-60
2022/07/26 03:32:58;;;;;;;2.73;1.73;;;21.00;59.80;;;;;;5073159;28;20178;-60
2022/07/26 03:35:24;;;;;;;4.93;1.77;;;21.00;59.40;;;;;;5069225;28;20205;-57
2022/07/26 03:37:50;;;;;;;4.00;2.03;;;21.00;59.80;;;;;;5071785;28;20702;-56
2022/07/26 03:40:16;;;;;;;2.33;1.70;;;21.00;59.50;;;;;;5070105;28;20520;-56
2022/07/26 03:42:42;;;;;;;2.77;1.77;;;20.90;59.50;;;;;;5080290;28;20554;-57
2022/07/26 03:45:08;;;;;;;2.70;1.67;;;20.90;59.60;;;;;;5067529;28;20421;-55
2022/07/26 03:47:33;;;;;;;2.70;1.90;;;20.90;59.70;;;;;;5075411;28;20177;-59
2022/07/26 03:49:59;;;;;;;2.50;1.50;;;20.90;59.90;;;;;;5074633;28;20446;-58
2022/07/26 03:52:25;;;;;;;4.03;1.80;;;20.90;59.90;;;;;;5073752;28;20181;-59
2022/07/26 03:54:50;;;;;;;2.00;1.67;;;20.80;59.90;;;;;;5067547;28;20224;-58
2022/07/26 03:57:16;;;;;;;4.73;1.70;;;20.80;60.20;;;;;;5073650;28;20189;-58
2022/07/26 03:59:41;;;;;;;2.20;1.43;;;20.80;60.80;;;;;;5069281;28;20198;-59
2022/07/26 04:02:07;;;;;;;4.57;2.20;;;20.80;61.10;;;;;;5075244;28;20234;-59
2022/07/26 04:04:33;;;;;;;2.03;1.87;;;20.70;61.10;;;;;;5072242;28;20690;-59
2022/07/26 04:06:58;;;;;;;3.83;1.80;;;20.70;61.40;;;;;;5085726;28;20162;-59
2022/07/26 04:09:24;;;;;;;2.00;1.80;;;20.70;61.60;;;;;;5083876;28;20721;-59
2022/07/26 04:11:49;;;;;;;2.43;1.90;;;20.70;61.70;;;;;;5089627;28;20207;-59
2022/07/26 04:14:15;;;;;;;1.77;1.67;;;20.70;62.40;;;;;;5070327;28;20615;-59
2022/07/26 04:16:41;;;;;;;2.60;2.00;;;20.70;63.00;;;;;;5079250;28;20634;-61
2022/07/26 04:19:06;;;;;;;3.10;1.63;;;20.60;62.60;;;;;;5084695;28;20259;-61
2022/07/26 04:21:32;;;;;;;1.47;1.30;;;20.70;62.50;;;;;;5084573;28;20178;-60
2022/07/26 04:23:58;;;;;;;3.23;2.03;;;20.70;62.60;;;;;;5083027;28;20173;-61
2022/07/26 04:26:24;;;;;;;1.80;1.70;;;20.70;62.50;;;;;;5080708;28;20174;-62
2022/07/26 04:28:49;;;;;;;3.10;1.70;;;20.70;62.70;;;;;;5080959;28;20681;-61
2022/07/26 04:31:15;;;;;;;1.90;1.63;;;20.70;62.80;;;;;;5084116;28;20663;-61
2022/07/26 04:33:40;;;;;;;3.87;2.40;;;20.70;63.00;;;;;;5076129;28;20182;-61
2022/07/26 04:36:06;;;;;;;3.30;2.20;;;20.70;63.30;;;;;;5077440;28;20838;-60
2022/07/26 04:38:32;;;;;;;3.03;2.10;;;20.60;63.60;;;;;;5087564;28;20208;-60
2022/07/26 04:40:58;;;;;;;5.17;2.00;;;20.60;64.40;;;;;;5081169;28;20174;-58
2022/07/26 04:43:24;;;;;;;2.40;1.83;;;20.60;64.20;;;;;;5079475;28;20170;-58
2022/07/26 04:45:50;;;;;;;1.93;1.77;;;20.60;64.40;;;;;;5081634;28;20254;-59
2022/07/26 04:48:16;;;;;;;4.97;2.00;;;20.60;65.20;;;;;;5082419;28;20513;-58
2022/07/26 04:50:42;;;;;;;2.37;1.70;;;20.60;64.70;;;;;;5078666;28;20642;-60
2022/07/26 04:53:09;;;;;;;4.27;1.97;;;20.50;64.60;;;;;;5083814;28;20171;-59
2022/07/26 04:55:36;;;;;;;2.90;1.90;;;20.50;65.20;;;;;;5085829;28;20447;-60
2022/07/26 04:58:02;;;;;;;5.53;1.80;;;20.50;65.50;;;;;;5081308;28;20424;-60
2022/07/26 05:00:28;;;;;;;8.43;1.90;;;20.50;65.50;;;;;;5078210;28;20433;-60
2022/07/26 05:02:56;;;;;;;2.40;1.80;;;20.50;65.90;;;;;;5086208;28;20436;-59
2022/07/26 05:05:24;;;;;;;1.70;1.60;;;20.60;66.60;;;;;;5080348;28;20174;-59
2022/07/26 05:07:52;;;;;;;1.67;1.57;;;20.60;67.00;;;;;;5076551;28;20432;-59
2022/07/26 05:10:20;;;;;;;2.00;1.90;;;20.70;67.80;;;;;;5081631;28;20504;-58
2022/07/26 05:12:46;;;;;;;2.63;1.87;;;20.70;67.80;;;;;;5079162;28;20531;-58
2022/07/26 05:15:13;;;;;;;3.90;2.53;;;20.70;68.00;;;;;;5082075;28;20546;-58
2022/07/26 05:17:40;;;;;;;3.03;2.10;;;20.70;68.00;;;;;;5089345;28;20501;-58
2022/07/26 05:20:07;;;;;;;3.07;1.83;;;20.70;68.70;;;;;;5089456;28;20443;-58
2022/07/26 05:22:34;;;;;;;2.80;2.07;;;20.80;68.20;;;;;;5078851;28;20419;-57
2022/07/26 05:24:59;;;;;;;4.20;1.70;;;20.90;66.80;;;;;;5084952;28;20423;-58
2022/07/26 05:27:26;;;;;;;3.97;2.03;;;21.00;66.20;;;;;;5084968;28;20432;-58
2022/07/26 05:29:51;;;;;;;2.47;1.97;;;21.00;65.50;;;;;;5082709;28;20673;-58
2022/07/26 05:32:17;;;;;;;3.03;2.10;;;21.00;66.00;;;;;;5075970;28;20491;-57
2022/07/26 05:34:43;;;;;;;3.50;1.97;;;21.00;66.90;;;;;;5086011;28;20637;-58
2022/07/26 05:37:09;;;;;;;5.23;1.77;;;21.00;66.40;;;;;;5079894;28;20618;-58
2022/07/26 05:39:34;;;;;;;7.63;2.97;;;21.00;66.10;;;;;;5078830;28;21254;-59
2022/07/26 05:42:00;;;;;;;5.13;1.83;;;20.90;66.40;;;;;;5089101;28;20170;-58
2022/07/26 05:44:25;;;;;;;4.90;1.80;;;20.90;66.20;;;;;;5090930;28;20548;-58
2022/07/26 05:46:51;;;;;;;3.50;1.83;;;21.00;66.30;;;;;;5089594;28;21008;-57
2022/07/26 05:49:17;;;;;;;2.43;1.97;;;21.00;65.90;;;;;;5079385;28;20579;-58
2022/07/26 05:51:42;;;;;;;4.27;2.10;;;21.00;66.10;;;;;;5089374;28;20212;-58
2022/07/26 05:54:08;;;;;;;2.27;1.80;;;21.00;66.10;;;;;;5087374;28;20178;-58
2022/07/26 05:56:34;;;;;;;4.83;3.00;;;21.00;67.50;;;;;;5083961;28;20205;-58
2022/07/26 05:59:00;;;;;;;1.70;1.60;;;21.00;68.20;;;;;;5084687;28;20783;-57
2022/07/26 06:01:25;;;;;;;2.90;2.43;;;21.00;68.10;;;;;;5085490;28;20455;-59
2022/07/26 06:03:51;;;;;;;6.73;2.57;;;21.00;68.70;;;;;;5084217;28;20201;-60
2022/07/26 06:06:17;;;;;;;3.30;2.33;;;21.00;68.30;;;;;;5086124;28;20215;-57
2022/07/26 06:08:42;;;;;;;3.63;1.90;;;21.00;68.60;;;;;;5090054;28;20206;-57
2022/07/26 06:11:08;;;;;;;2.30;2.10;;;21.00;68.40;;;;;;5083374;28;20670;-59
2022/07/26 06:13:33;;;;;;;2.00;1.80;;;21.00;69.10;;;;;;5080058;28;20182;-59
2022/07/26 06:16:00;;;;;;;3.90;2.57;;;21.00;68.70;;;;;;5077875;28;20289;-57
2022/07/26 06:18:25;;;;;;;4.03;2.13;;;21.00;69.60;;;;;;5073981;28;20218;-59
2022/07/26 06:20:51;;;;;;;3.30;2.10;;;21.10;69.30;;;;;;5085879;28;20448;-56
2022/07/26 06:23:16;;;;;;;2.10;2.00;;;21.10;69.00;;;;;;5085312;28;20174;-58
2022/07/26 06:25:42;;;;;;;4.07;2.30;;;21.10;69.30;;;;;;5088003;28;20631;-58
2022/07/26 06:28:09;;;;;;;6.27;2.20;;;21.20;70.20;;;;;;5086267;28;20198;-57
2022/07/26 06:30:39;;;;;;;3.30;2.07;;;21.30;70.80;;;;;;5083323;28;20659;-57
2022/07/26 06:33:06;;;;;;;4.83;2.23;;;21.30;70.20;;;;;;5075194;28;20434;-58
2022/07/26 06:35:34;;;;;;;3.07;2.30;;;21.40;69.90;;;;;;5087072;28;20505;-58
2022/07/26 06:38:00;;;;;;;3.80;2.10;;;21.50;67.90;;;;;;5089556;28;20783;-58
2022/07/26 06:40:25;;;;;;;3.50;2.60;;;21.40;68.20;;;;;;5086350;28;20485;-57
2022/07/26 06:42:51;;;;;;;7.87;2.60;;;21.40;69.20;;;;;;5082929;28;20200;-58
2022/07/26 06:45:17;;;;;;;6.07;2.10;;;21.40;69.00;;;;;;5087060;28;20705;-58
2022/07/26 06:47:42;;;;;;;5.10;2.40;;;21.50;67.60;;;;;;5075942;28;20190;-58
2022/07/26 06:50:09;;;;;;;3.23;2.50;;;21.50;67.60;;;;;;5084177;28;20265;-58
2022/07/26 06:52:34;;;;;;;3.80;2.50;;;21.50;67.10;;;;;;5089552;28;20189;-58
2022/07/26 06:55:01;;;;;;;3.20;1.93;;;21.60;66.90;;;;;;5082575;28;20456;-58
2022/07/26 06:57:27;;;;;;;1.87;1.77;;;21.60;65.10;;;;;;5085234;28;20252;-57
2022/07/26 06:59:52;;;;;;;3.30;2.67;;;21.50;64.80;;;;;;5077684;28;20986;-58
2022/07/26 07:02:18;;;;;;;2.97;2.20;;;21.50;65.20;;;;;;5086134;28;21086;-58
2022/07/26 07:04:44;;;;;;;3.20;2.30;;;21.40;66.00;;;;;;5085359;28;20170;-58
2022/07/26 07:07:10;;;;;;;3.63;2.20;;;21.30;66.40;;;;;;5088826;28;20424;-58
2022/07/26 07:09:36;;;;;;;3.80;3.00;;;21.30;67.50;;;;;;5084890;28;20873;-58
2022/07/26 07:12:06;;;;;;;2.20;2.00;;;21.20;67.90;;;;;;5086700;28;20204;-56
2022/07/26 07:14:32;;;;;;;4.00;2.73;;;21.10;69.60;;;;;;5079450;28;20421;-58
2022/07/26 07:16:58;;;;;;;6.90;2.60;;;21.10;70.90;;;;;;5082889;28;20470;-58
2022/07/26 07:19:24;;;;;;;2.60;2.13;;;21.20;71.50;;;;;;5074709;28;20439;-59
2022/07/26 07:21:50;;;;;;;6.87;2.97;;;21.20;71.30;;;;;;5082685;28;20261;-58
2022/07/26 07:24:16;;;;;;;2.57;2.20;;;21.30;71.10;;;;;;5087521;28;20481;-58
2022/07/26 07:26:42;;;;;;;2.60;2.40;;;21.40;70.50;;;;;;5076858;28;20427;-58
2022/07/26 07:29:11;;;;;;;4.10;2.70;;;21.50;70.00;;;;;;5070307;28;20420;-58
2022/07/26 07:31:37;;;;;;;4.10;2.50;;;21.60;69.90;;;;;;5070599;28;20186;-56
2022/07/26 07:34:03;;;;;;;7.70;2.50;;;21.60;68.80;;;;;;5081366;28;20915;-58
2022/07/26 07:36:28;;;;;;;8.30;2.40;;;21.60;67.80;;;;;;5085296;28;20210;-58
2022/07/26 07:38:54;;;;;;;3.30;2.57;;;21.70;67.20;;;;;;5080279;28;20221;-58
2022/07/26 07:41:19;;;;;;;2.97;2.57;;;21.60;66.70;;;;;;5079067;28;20178;-59
2022/07/26 07:43:45;;;;;;;2.97;2.57;;;21.60;65.90;;;;;;5083787;28;20205;-57
2022/07/26 07:46:11;;;;;;;2.27;2.07;;;21.50;66.50;;;;;;5073359;28;20670;-58
2022/07/26 07:48:39;;;;;;;4.93;2.50;;;21.50;66.80;;;;;;5085282;28;20197;-58
2022/07/26 07:51:08;;;;;;;8.40;2.47;;;21.60;65.90;;;;;;5073733;28;20425;-58
2022/07/26 07:53:34;;;;;;;5.10;2.60;;;21.60;64.70;;;;;;5074415;28;20431;-57
2022/07/26 07:55:59;;;;;;;2.97;2.50;;;21.60;64.70;;;;;;5077864;28;20513;-58
2022/07/26 07:58:25;;;;;;;3.10;2.73;;;21.60;64.50;;;;;;5084597;28;20186;-58
2022/07/26 08:00:51;;;;;;;4.77;2.90;;;21.60;63.50;;;;;;5076770;28;20178;-58
2022/07/26 08:03:17;;;;;;;10.00;2.80;;;21.60;64.30;;;;;;5069666;28;20647;-58
2022/07/26 08:05:42;;;;;;;6.40;2.47;;;21.50;64.30;;;;;;5076522;28;20174;-59
2022/07/26 08:08:08;;;;;;;3.07;2.30;;;21.40;64.70;;;;;;5081600;28;20263;-57
2022/07/26 08:10:34;;;;;;;6.90;2.80;;;21.40;65.20;;;;;;5069555;28;20698;-57
2022/07/26 08:12:59;;;;;;;3.77;2.50;;;21.40;63.30;;;;;;5076533;28;20186;-58
2022/07/26 08:15:26;;;;;;;2.53;2.23;;;21.30;62.60;;;;;;5086107;28;20189;-59
2022/07/26 08:17:52;;;;;;;8.77;2.70;;;21.30;62.60;;;;;;5081712;28;20242;-58
2022/07/26 08:20:18;;;;;;;4.30;2.57;;;21.30;60.60;;;;;;5080928;28;20504;-57
2022/07/26 08:22:44;;;;;;;2.60;2.40;;;21.30;61.30;;;;;;5079611;28;20432;-58
2022/07/26 08:25:10;;;;;;;5.23;2.23;;;21.40;61.10;;;;;;5087625;28;20412;-57
2022/07/26 08:27:36;;;;;;;3.87;2.20;;;21.60;60.60;;;;;;5083186;28;21025;-58
2022/07/26 08:30:03;;;;;;;4.77;2.40;;;21.70;59.70;;;;;;5088119;28;20519;-58
2022/07/26 08:32:28;;;;;;;3.67;2.13;;;21.80;58.90;;;;;;5082217;28;20170;-58
2022/07/26 08:34:54;;;;;;;3.40;2.50;;;21.80;58.20;;;;;;5085106;28;20505;-58
2022/07/26 08:37:20;;;;;;;4.50;2.57;;;21.70;57.70;;;;;;5088285;28;20643;-58
2022/07/26 08:39:48;;;;;;;4.43;2.23;;;21.70;58.20;;;;;;5086218;28;20592;-57
2022/07/26 08:42:19;;;;;;;2.87;2.40;;;21.70;57.60;;;;;;5085999;28;20209;-58
2022/07/26 08:44:46;;;;;;;3.60;2.40;;;21.80;57.10;;;;;;5087433;28;20412;-57
2022/07/26 08:47:18;;;;;;;2.87;2.17;;;21.90;56.10;;;;;;5084396;28;20428;-57
2022/07/26 08:49:44;;;;;;;3.80;2.30;;;21.80;55.30;;;;;;5081403;28;20444;-57
2022/07/26 08:52:11;;;;;;;2.60;2.10;;;21.90;54.70;;;;;;5085848;28;20940;-57
2022/07/26 08:54:43;;;;;;;6.43;2.40;;;22.00;54.80;;;;;;5083033;28;20472;-57
2022/07/26 08:57:09;;;;;;;2.17;2.00;;;22.20;54.10;;;;;;5084468;28;20565;-58
2022/07/26 08:59:35;;;;;;;3.10;2.47;;;22.30;53.90;;;;;;5079683;28;21103;-58
2022/07/26 09:02:07;;;;;;;4.03;2.27;;;22.40;54.00;;;;;;5085050;28;20217;-58
2022/07/26 09:04:35;;;;;;;3.00;2.20;;;22.60;53.70;;;;;;5080971;28;20166;-59
2022/07/26 09:07:05;;;;;;;8.20;2.17;;;22.80;53.50;;;;;;5081279;28;20421;-58
2022/07/26 09:09:33;;;;;;;3.83;2.60;;;23.00;53.70;;;;;;5081345;28;21029;-58
2022/07/26 09:12:13;;;;;;;5.80;2.00;;;23.20;52.80;;;;;;5081627;28;20477;-58
2022/07/26 09:14:39;;;;;;;6.83;2.30;;;23.20;53.00;;;;;;5086383;28;20399;-58
2022/07/26 09:17:05;;;;;;;3.80;1.80;;;23.30;52.60;;;;;;5084202;28;20420;-57
2022/07/26 09:19:31;;;;;;;2.30;2.10;;;23.40;51.90;;;;;;5083786;28;20451;-59
2022/07/26 09:22:09;;;;;;;7.93;2.00;;;23.40;51.90;;;;;;5084668;28;20182;-57
2022/07/26 09:24:40;;;;;;;2.03;1.83;;;23.30;51.20;;;;;;5085865;28;20282;-57
2022/07/26 09:27:10;;;;;;;18.00;2.50;;;23.40;50.90;;;;;;5082855;28;20453;-58
2022/07/26 09:29:47;;;;;;;3.27;2.20;;;23.50;51.10;;;;;;5078703;28;20443;-59
2022/07/26 09:32:16;;;;;;;2.13;2.00;;;23.50;49.90;;;;;;5080951;28;20522;-58
2022/07/26 09:34:46;;;;;;;3.60;2.50;;;23.40;49.30;;;;;;5076605;28;20512;-58
2022/07/26 09:37:12;;;;;;;3.97;2.40;;;23.40;50.10;;;;;;5076685;28;20423;-58
2022/07/26 09:39:59;;;;;;;8.47;1.87;;;23.50;50.30;;;;;;5087032;28;20449;-58
2022/07/26 09:42:26;;;;;;;5.50;2.07;;;23.60;49.20;;;;;;5083937;28;20174;-59
2022/07/26 09:44:53;;;;;;;5.70;1.93;;;23.70;47.70;;;;;;5083442;28;20430;-58
2022/07/26 09:47:19;;;;;;;2.67;2.10;;;23.70;46.90;;;;;;5086313;28;20786;-59
2022/07/26 09:49:45;;;;;;;11.47;2.23;;;23.80;47.10;;;;;;5089506;28;20440;-59
2022/07/26 09:52:17;;;;;;;2.23;1.83;;;24.00;47.20;;;;;;5089373;28;20430;-58
2022/07/26 09:54:45;;;;;;;4.33;2.60;;;24.30;47.00;;;;;;5084609;28;20173;-57
2022/07/26 09:57:13;;;;;;;3.63;1.50;;;24.60;45.90;;;;;;5081698;28;20428;-58
2022/07/26 09:59:39;;;;;;;4.50;1.80;;;24.80;44.60;;;;;;5089379;28;20492;-58
2022/07/26 10:02:04;;;;;;;6.83;2.00;;;24.70;44.80;;;;;;5085685;28;20436;-58
2022/07/26 10:04:30;;;;;;;5.00;1.70;;;24.40;45.00;;;;;;5081232;28;20234;-58
2022/07/26 10:07:01;;;;;;;4.87;1.97;;;24.40;44.80;;;;;;5077007;28;20490;-58
2022/07/26 10:09:44;;;;;;;8.00;1.83;;;24.50;45.60;;;;;;5073075;28;20233;-57
2022/07/26 10:12:14;;;;;;;7.30;1.90;;;24.70;45.60;;;;;;5070683;28;20789;-57
2022/07/26 10:14:50;;;;;;;3.53;2.40;;;24.80;43.30;;;;;;5080013;28;21012;-58
2022/07/26 10:17:28;;;;;;;2.77;1.90;;;25.00;44.80;;;;;;5074897;28;20431;-60
2022/07/26 10:20:35;;;;;;;3.67;1.90;;;25.10;42.50;;;;;;5079481;28;20445;-60
2022/07/26 10:23:01;;;;;;;11.83;2.33;;;25.20;42.50;;;;;;5076114;28;21146;-60
2022/07/26 10:25:26;;;;;;;3.77;2.00;;;25.40;43.00;;;;;;5080677;28;20522;-60
2022/07/26 10:27:54;;;;;;;2.00;1.70;;;25.70;42.80;;;;;;5077934;28;20185;-60
2022/07/26 10:30:22;;;;;;;3.50;2.10;;;26.00;41.90;;;;;;5078954;28;20185;-60
2022/07/26 10:32:50;;;;;;;3.07;1.93;;;26.20;40.20;;;;;;5080336;28;21080;-60
2022/07/26 10:35:40;;;;;;;2.77;2.07;;;26.30;40.70;;;;;;5073183;28;20456;-60
2022/07/26 10:38:22;;;;;;;2.00;1.77;;;26.40;40.40;;;;;;5073547;28;20428;-61
2022/07/26 10:41:02;;;;;;;2.07;1.87;;;26.40;40.10;;;;;;5084624;28;20411;-60
2022/07/26 10:43:28;;;;;;;3.70;2.00;;;26.50;41.30;;;;;;5087972;28;20472;-59
2022/07/26 10:46:19;;;;;;;3.00;1.70;;;26.70;40.70;;;;;;5077523;28;20498;-60
2022/07/26 10:49:17;;;;;;;2.07;1.50;;;26.70;39.90;;;;;;5081693;28;20451;-60
2022/07/26 10:51:42;;;;;;;3.27;1.50;;;26.70;38.90;;;;;;5052527;28;20571;-58
2022/07/26 10:54:10;;;;;;;3.37;1.70;;;26.50;38.20;;;;;;5074027;28;20523;-61
2022/07/26 10:56:37;;;;;;;6.77;1.77;;;26.30;38.70;;;;;;5073239;28;20196;-60
2022/07/26 10:59:04;;;;;;;3.30;1.70;;;26.10;39.60;;;;;;5072208;28;20448;-60
2022/07/26 11:01:41;;;;;;;3.97;1.90;;;25.90;39.50;;;;;;5077292;28;21176;-59
2022/07/26 11:04:20;;;;;;;3.40;1.73;;;25.90;40.80;;;;;;5067540;28;20430;-60
2022/07/26 11:06:46;;;;;;;1.90;1.70;;;26.00;40.00;;;;;;5077480;28;20459;-62
2022/07/26 11:09:12;;;;;;;5.20;1.90;;;25.90;40.10;;;;;;5080277;28;20439;-61
2022/07/26 11:11:38;;;;;;;2.80;1.77;;;26.10;39.90;;;;;;5078183;28;20516;-61
2022/07/26 11:14:09;;;;;;;2.13;1.50;;;26.40;40.20;;;;;;5078246;28;20178;-59
2022/07/26 11:16:40;;;;;;;1.63;1.50;;;26.60;39.90;;;;;;5079477;28;20196;-60
2022/07/26 11:19:13;;;;;;;5.07;1.53;;;26.50;38.90;;;;;;5072350;28;20442;-59
2022/07/26 11:21:40;;;;;;;3.00;1.87;;;26.10;39.10;;;;;;5071723;28;20497;-61
2022/07/26 11:24:06;;;;;;;3.13;1.90;;;26.10;39.30;;;;;;5079305;28;20995;-60
2022/07/26 11:26:42;;;;;;;3.20;1.60;;;26.30;38.90;;;;;;5079211;28;20853;-60
2022/07/26 11:29:08;;;;;;;4.47;1.50;;;26.30;38.80;;;;;;5079607;28;20451;-60
2022/07/26 11:31:43;;;;;;;2.07;1.37;;;26.30;39.00;;;;;;5077433;28;20442;-60
2022/07/26 11:34:35;;;;;;;12.23;1.73;;;26.20;39.00;;;;;;5077474;28;20460;-63
2022/07/26 11:37:03;;;;;;;2.70;1.57;;;26.20;39.00;;;;;;5072698;28;20478;-61
2022/07/26 11:39:34;;;;;;;2.03;1.50;;;26.10;39.20;;;;;;5075469;28;20470;-61
2022/07/26 11:42:03;;;;;;;3.23;1.73;;;26.10;39.50;;;;;;5072868;28;20504;-60
2022/07/26 11:44:31;;;;;;;3.70;1.60;;;26.50;39.50;;;;;;5069257;28;20452;-62
2022/07/26 11:46:57;;;;;;;1.90;1.70;;;26.80;39.20;;;;;;5074541;28;20431;-63
2022/07/26 11:49:25;;;;;;;2.03;1.53;;;27.00;38.00;;;;;;5075447;28;20538;-62
2022/07/26 11:51:55;;;;;;;3.67;1.73;;;27.00;38.90;;;;;;5068969;28;20177;-63
2022/07/26 11:54:22;;;;;;;3.70;1.80;;;27.40;39.20;;;;;;5078477;28;20419;-63
2022/07/26 11:56:51;;;;;;;4.23;1.77;;;27.80;38.80;;;;;;5085785;28;20470;-62
2022/07/26 11:59:18;;;;;;;4.20;1.57;;;28.20;36.90;;;;;;5081639;28;20444;-62
2022/07/26 12:01:47;;;;;;;3.67;1.80;;;28.30;35.70;;;;;;5073501;28;20192;-62
2022/07/26 12:04:27;;;;;;;1.60;1.30;;;28.30;35.30;;;;;;5078918;28;20272;-63
2022/07/26 12:06:54;;;;;;;1.57;1.47;;;28.10;35.60;;;;;;5081940;28;20169;-62
2022/07/26 12:09:39;;;;;;;1.50;1.40;;;28.00;35.80;;;;;;5082766;28;20193;-62
2022/07/26 12:12:17;;;;;;;4.53;1.50;;;27.80;36.50;;;;;;5085186;28;20837;-62
2022/07/26 12:14:43;;;;;;;3.10;1.53;;;27.60;35.60;;;;;;5086389;28;20169;-62
2022/07/26 12:17:15;;;;;;;1.90;1.67;;;27.50;36.50;;;;;;5082554;28;20873;-63
2022/07/26 12:19:42;;;;;;;3.83;1.50;;;27.40;36.40;;;;;;5084514;28;20718;-62
2022/07/26 12:22:16;;;;;;;1.60;1.50;;;27.10;36.40;;;;;;5084195;28;20214;-62
2022/07/26 12:24:55;;;;;;;1.57;1.20;;;27.00;37.10;;;;;;5089150;28;20263;-62
2022/07/26 12:27:22;;;;;;;3.33;1.40;;;26.90;37.50;;;;;;5071999;28;20166;-61
2022/07/26 12:29:49;;;;;;;1.77;1.67;;;27.10;37.70;;;;;;5075400;28;20478;-63
2022/07/26 12:32:20;;;;;;;4.57;1.50;;;27.40;37.10;;;;;;5079439;28;20781;-62
2022/07/26 12:34:59;;;;;;;3.03;1.70;;;27.60;36.80;;;;;;5084357;28;20166;-63
2022/07/26 12:37:28;;;;;;;3.53;1.47;;;27.60;35.70;;;;;;5075210;28;20174;-62
2022/07/26 12:40:07;;;;;;;2.40;1.43;;;27.50;36.90;;;;;;5076932;28;20272;-62
2022/07/26 12:42:39;;;;;;;10.50;1.70;;;27.40;37.20;;;;;;5086407;28;20173;-62
2022/07/26 12:45:10;;;;;;;3.33;1.53;;;27.30;37.00;;;;;;5069393;28;20483;-62
2022/07/26 12:47:38;;;;;;;3.10;1.40;;;27.50;37.20;;;;;;5080093;28;20645;-62